Time;durP1;ratioP1;P1;durP2;ratioP2;P2;SDS_P1;SDS_P2;PMS_P1;PMS_P2;Temp;Humidity;BMP_temperature;BMP_pressure;BME280_temperature;BME280_humidity;BME280_pressure;Samples;Min_cycle;Max_cycle;Signal;HPM_P1;HPM_P2
2022/12/14 00:00:42;;;;;;;78.20;12.27;;;-1.80;99.90;;;;;;5029341;28;21054;-87
2022/12/14 00:03:08;;;;;;;75.72;11.55;;;-1.90;99.90;;;;;;5010412;28;20265;-88
2022/12/14 00:05:35;;;;;;;75.77;10.80;;;-1.80;99.90;;;;;;5028464;28;20162;-88
2022/12/14 00:08:01;;;;;;;81.50;12.70;;;-1.80;99.90;;;;;;5028562;28;20472;-87
2022/12/14 00:10:27;;;;;;;83.07;12.25;;;-1.80;99.90;;;;;;5010371;28;20206;-88
2022/12/14 00:12:52;;;;;;;77.50;10.40;;;-1.80;99.90;;;;;;5010610;28;20170;-88
2022/12/14 00:15:18;;;;;;;81.30;11.37;;;-1.80;99.90;;;;;;5029997;28;20443;-88
2022/12/14 00:17:44;;;;;;;79.37;11.83;;;-1.70;99.90;;;;;;5029162;28;20221;-88
2022/12/14 00:20:10;;;;;;;76.73;12.00;;;-1.70;99.90;;;;;;5010876;28;20261;-87
2022/12/14 00:22:36;;;;;;;80.55;11.63;;;-1.80;99.90;;;;;;5029077;28;20176;-88
2022/12/14 00:25:02;;;;;;;78.77;11.63;;;-1.80;99.90;;;;;;5011525;28;20193;-87
2022/12/14 00:27:28;;;;;;;76.35;10.05;;;-1.80;99.90;;;;;;5030857;28;20194;-86
2022/12/14 00:29:54;;;;;;;79.10;10.00;;;-1.80;99.90;;;;;;5015106;28;20197;-88
2022/12/14 00:32:20;;;;;;;75.10;11.57;;;-1.80;99.90;;;;;;5032315;28;20428;-87
2022/12/14 00:34:46;;;;;;;78.60;13.47;;;-1.70;99.90;;;;;;5032221;28;20170;-88
2022/12/14 00:37:14;;;;;;;83.70;14.60;;;-1.60;99.90;;;;;;5031993;28;20181;-86
2022/12/14 00:39:40;;;;;;;81.32;12.98;;;-1.70;99.90;;;;;;5030355;28;20178;-86
2022/12/14 00:42:06;;;;;;;74.33;11.17;;;-1.70;99.90;;;;;;5013677;28;20200;-87
2022/12/14 00:44:32;;;;;;;77.45;10.82;;;-1.80;99.90;;;;;;5012829;28;20618;-87
2022/12/14 00:46:58;;;;;;;79.47;13.05;;;-1.70;99.90;;;;;;5030409;28;20161;-88
2022/12/14 00:49:24;;;;;;;79.18;12.93;;;-1.80;99.90;;;;;;5029479;28;20233;-87
2022/12/14 00:51:50;;;;;;;75.50;10.90;;;-1.70;99.90;;;;;;5029884;28;20186;-86
2022/12/14 00:54:16;;;;;;;75.00;11.73;;;-1.70;99.90;;;;;;5030074;28;20205;-87
2022/12/14 00:56:41;;;;;;;77.45;11.45;;;-1.70;99.90;;;;;;5029357;28;20185;-88
2022/12/14 00:59:07;;;;;;;73.13;10.70;;;-1.60;99.90;;;;;;5029658;28;20162;-87
2022/12/14 01:01:33;;;;;;;77.03;11.43;;;-1.70;99.90;;;;;;5011294;28;20200;-87
2022/12/14 01:04:18;;;;;;;73.53;12.30;;;-1.70;99.90;;;;;;5029655;28;20688;-87
2022/12/14 01:06:45;;;;;;;75.22;9.77;;;-1.70;99.90;;;;;;5029248;28;20389;-86
2022/12/14 01:09:11;;;;;;;75.82;13.07;;;-1.70;99.90;;;;;;5011880;28;20162;-87
2022/12/14 01:11:37;;;;;;;75.10;13.02;;;-1.60;99.90;;;;;;5028464;28;20178;-88
2022/12/14 01:14:03;;;;;;;74.67;11.20;;;-1.60;99.90;;;;;;5010937;28;20244;-88
2022/12/14 01:16:29;;;;;;;74.90;10.40;;;-1.60;99.90;;;;;;5011627;28;20180;-88
2022/12/14 01:18:55;;;;;;;76.00;12.53;;;-1.60;99.90;;;;;;5028582;28;20166;-88
2022/12/14 01:21:23;;;;;;;76.67;12.57;;;-1.60;99.90;;;;;;5029005;28;20428;-88
2022/12/14 01:23:58;;;;;;;75.38;11.32;;;-1.60;99.90;;;;;;5028331;28;20190;-88
2022/12/14 01:26:25;;;;;;;74.25;11.63;;;-1.60;99.90;;;;;;5010941;28;20168;-88
2022/12/14 01:28:56;;;;;;;76.57;11.60;;;-1.60;99.90;;;;;;5028435;28;20245;-88
2022/12/14 01:31:24;;;;;;;77.07;11.60;;;-1.60;99.90;;;;;;5028303;28;20242;-88
2022/12/14 01:33:50;;;;;;;75.68;11.60;;;-1.60;99.90;;;;;;5028504;28;20168;-88
2022/12/14 01:36:35;;;;;;;76.97;12.10;;;-1.60;99.90;;;;;;5028010;28;20553;-86
2022/12/14 01:39:05;;;;;;;75.30;10.38;;;-1.70;99.90;;;;;;5011164;28;20412;-88
2022/12/14 01:41:41;;;;;;;76.70;11.70;;;-1.70;99.90;;;;;;5028312;28;20185;-88
2022/12/14 01:44:06;;;;;;;79.32;11.88;;;-1.60;99.90;;;;;;5028130;28;20193;-88
2022/12/14 01:46:50;;;;;;;80.27;11.67;;;-1.60;99.90;;;;;;5028425;28;20169;-88
2022/12/14 01:49:27;;;;;;;79.05;13.90;;;-1.60;99.90;;;;;;5010530;28;20159;-87
2022/12/14 01:52:22;;;;;;;76.18;11.32;;;-1.60;99.90;;;;;;5026649;28;20186;-87
2022/12/14 01:55:28;;;;;;;74.10;10.13;;;-1.60;99.90;;;;;;5026446;28;20180;-86
2022/12/14 01:58:15;;;;;;;76.47;12.77;;;-1.60;99.90;;;;;;5027764;28;20162;-87
2022/12/14 02:00:43;;;;;;;73.68;12.10;;;-1.60;99.90;;;;;;5027819;28;20220;-88
2022/12/14 02:03:43;;;;;;;75.75;10.52;;;-1.60;99.90;;;;;;5026692;28;20197;-88
2022/12/14 02:06:24;;;;;;;73.93;11.40;;;-1.50;99.90;;;;;;5005126;28;20174;-88
2022/12/14 02:08:52;;;;;;;76.30;11.18;;;-1.60;99.90;;;;;;5026862;28;20150;-87
2022/12/14 02:11:42;;;;;;;75.60;11.55;;;-1.60;99.90;;;;;;5028788;28;20188;-86
2022/12/14 02:14:07;;;;;;;75.30;11.50;;;-1.60;99.90;;;;;;5030718;28;20241;-86
2022/12/14 02:16:34;;;;;;;73.80;11.20;;;-1.60;99.90;;;;;;5031726;28;20177;-86
2022/12/14 02:19:03;;;;;;;84.97;11.70;;;-1.60;99.90;;;;;;5031264;28;20538;-86
2022/12/14 02:21:54;;;;;;;73.30;12.13;;;-1.60;99.90;;;;;;5030802;28;20185;-86
2022/12/14 02:24:51;;;;;;;77.05;11.48;;;-1.60;99.90;;;;;;5030124;28;20193;-87
2022/12/14 02:27:41;;;;;;;76.13;11.02;;;-1.60;99.90;;;;;;5012082;28;20158;-87
2022/12/14 02:30:09;;;;;;;73.90;11.07;;;-1.70;99.90;;;;;;5029684;28;20192;-87
2022/12/14 02:33:12;;;;;;;75.00;10.38;;;-1.70;99.90;;;;;;5029241;28;20177;-87
2022/12/14 02:36:11;;;;;;;75.25;11.05;;;-1.70;99.90;;;;;;5029852;28;20161;-88
2022/12/14 02:39:00;;;;;;;73.30;11.25;;;-1.70;99.90;;;;;;5029188;28;20225;-88
2022/12/14 02:41:53;;;;;;;76.57;10.45;;;-1.70;99.90;;;;;;5028855;28;20180;-87
2022/12/14 02:44:44;;;;;;;78.40;11.20;;;-1.60;99.90;;;;;;5028947;28;20201;-88
2022/12/14 02:47:28;;;;;;;76.57;11.80;;;-1.70;99.90;;;;;;5029045;28;20218;-87
2022/12/14 02:49:59;;;;;;;76.00;11.15;;;-1.70;99.90;;;;;;5010932;28;20695;-88
2022/12/14 02:52:50;;;;;;;72.07;10.07;;;-1.70;99.90;;;;;;5029193;28;20185;-88
2022/12/14 02:55:34;;;;;;;76.05;11.85;;;-1.70;99.90;;;;;;5028579;28;20177;-87
2022/12/14 02:58:11;;;;;;;73.43;9.82;;;-1.60;99.90;;;;;;5027711;28;20618;-88
2022/12/14 03:00:37;;;;;;;76.75;11.23;;;-1.60;99.90;;;;;;5028831;28;20185;-88
2022/12/14 03:03:06;;;;;;;74.80;10.57;;;-1.60;99.90;;;;;;5010835;28;20215;-88
2022/12/14 03:05:32;;;;;;;74.05;10.45;;;-1.60;99.90;;;;;;5032218;28;20177;-88
2022/12/14 03:08:03;;;;;;;74.10;10.30;;;-1.60;99.90;;;;;;5031813;28;20161;-86
2022/12/14 03:11:00;;;;;;;74.80;11.30;;;-1.60;99.90;;;;;;5032030;28;20212;-88
2022/12/14 03:14:13;;;;;;;76.00;10.90;;;-1.60;99.90;;;;;;5032301;28;20155;-88
2022/12/14 03:16:43;;;;;;;74.40;10.43;;;-1.60;99.90;;;;;;5005560;28;20228;-88
2022/12/14 03:19:24;;;;;;;77.13;11.68;;;-1.60;99.90;;;;;;5031765;28;20162;-88
2022/12/14 03:21:56;;;;;;;73.47;10.43;;;-1.60;99.90;;;;;;5032655;28;20220;-87
2022/12/14 03:24:49;;;;;;;73.13;10.00;;;-1.60;99.90;;;;;;5031649;28;20212;-87
2022/12/14 03:27:24;;;;;;;75.18;10.45;;;-1.60;99.90;;;;;;5014215;28;20181;-88
2022/12/14 03:30:04;;;;;;;73.28;10.50;;;-1.60;99.90;;;;;;5031389;28;20161;-87
2022/12/14 03:32:32;;;;;;;76.35;10.90;;;-1.50;99.90;;;;;;5013729;28;20157;-87
2022/12/14 03:35:01;;;;;;;70.65;8.45;;;-1.50;99.90;;;;;;5030705;28;20193;-88
2022/12/14 03:37:46;;;;;;;76.97;9.60;;;-1.50;99.90;;;;;;5030631;28;20173;-87
2022/12/14 03:40:13;;;;;;;70.20;9.93;;;-1.40;99.90;;;;;;5031408;28;20253;-87
2022/12/14 03:43:03;;;;;;;79.45;11.35;;;-1.40;99.90;;;;;;5031099;28;20169;-88
2022/12/14 03:45:36;;;;;;;73.53;10.80;;;-1.40;99.90;;;;;;5030970;28;20202;-88
2022/12/14 03:48:19;;;;;;;73.78;10.70;;;-1.40;99.90;;;;;;5030733;28;20156;-88
2022/12/14 03:50:59;;;;;;;73.85;10.43;;;-1.40;99.90;;;;;;5013442;28;20194;-88
2022/12/14 03:53:35;;;;;;;72.43;10.73;;;-1.30;99.90;;;;;;5012894;28;20238;-88
2022/12/14 03:56:13;;;;;;;74.53;10.88;;;-1.30;99.90;;;;;;5016300;28;20168;-85
2022/12/14 03:59:00;;;;;;;70.80;9.50;;;-1.30;99.90;;;;;;5017267;28;20193;-87
2022/12/14 04:01:40;;;;;;;70.57;8.93;;;-1.30;99.90;;;;;;5034924;28;20182;-87
2022/12/14 04:04:25;;;;;;;74.55;11.20;;;-1.30;99.90;;;;;;5016824;28;20182;-87
2022/12/14 04:06:57;;;;;;;76.65;10.65;;;-1.30;99.90;;;;;;5034160;28;20150;-87
2022/12/14 04:09:47;;;;;;;76.43;10.95;;;-1.30;99.80;;;;;;5033810;28;20208;-87
2022/12/14 04:21:20;;;;;;;73.95;10.98;;;-1.20;99.90;;;;;;5030307;28;20193;-88
2022/12/14 04:26:41;;;;;;;73.28;9.50;;;-1.20;99.90;;;;;;5030342;28;20185;-88
2022/12/14 04:32:09;;;;;;;73.75;10.00;;;-1.20;99.90;;;;;;5029488;28;20189;-88
2022/12/14 04:34:37;;;;;;;75.03;11.48;;;-1.20;99.90;;;;;;5029913;28;20162;-88
2022/12/14 04:37:08;;;;;;;72.57;10.05;;;-1.20;99.90;;;;;;5012767;28;20578;-88
2022/12/14 04:39:46;;;;;;;73.72;9.60;;;-1.20;99.90;;;;;;5029495;28;20173;-88
2022/12/14 04:42:15;;;;;;;73.80;10.35;;;-1.20;99.90;;;;;;5029524;28;20197;-88
2022/12/14 04:44:50;;;;;;;72.15;9.23;;;-1.30;99.90;;;;;;5029725;28;20569;-88
2022/12/14 04:47:18;;;;;;;73.53;11.25;;;-1.30;99.90;;;;;;5013314;28;20161;-87
2022/12/14 04:49:50;;;;;;;76.95;11.52;;;-1.30;99.90;;;;;;5030225;28;20169;-88
2022/12/14 04:52:31;;;;;;;71.53;9.90;;;-1.20;99.90;;;;;;5030837;28;20161;-88
2022/12/14 04:55:16;;;;;;;71.90;9.50;;;-1.20;99.90;;;;;;5030157;28;20154;-88
2022/12/14 04:57:51;;;;;;;73.93;10.05;;;-1.10;99.90;;;;;;5030176;28;20154;-88
2022/12/14 05:00:16;;;;;;;72.82;10.10;;;-1.20;99.90;;;;;;5013275;28;20186;-88
2022/12/14 05:02:42;;;;;;;72.27;8.80;;;-1.20;99.90;;;;;;5029788;28;20166;-87
2022/12/14 05:05:34;;;;;;;74.40;10.43;;;-1.20;99.90;;;;;;5029538;28;20224;-88
2022/12/14 05:08:03;;;;;;;71.97;9.40;;;-1.30;99.90;;;;;;5030046;28;20382;-88
2022/12/14 05:10:43;;;;;;;76.07;10.85;;;-1.20;99.90;;;;;;5027718;28;20178;-88
2022/12/14 05:13:20;;;;;;;77.05;10.45;;;-1.20;99.90;;;;;;5028948;28;20187;-88
2022/12/14 05:15:51;;;;;;;73.95;11.05;;;-1.20;99.90;;;;;;5029390;28;20157;-88
2022/12/14 05:18:17;;;;;;;78.32;12.38;;;-1.20;99.90;;;;;;5030108;28;20158;-88
2022/12/14 05:20:44;;;;;;;72.78;10.70;;;-1.30;99.90;;;;;;5029335;28;20181;-87
2022/12/14 05:23:10;;;;;;;75.65;11.48;;;-1.30;99.90;;;;;;5030227;28;20162;-88
2022/12/14 05:25:36;;;;;;;72.07;8.90;;;-1.20;99.90;;;;;;5029575;28;20211;-87
2022/12/14 05:28:01;;;;;;;71.83;10.20;;;-1.30;99.90;;;;;;5030236;28;20170;-88
2022/12/14 05:30:27;;;;;;;74.97;11.00;;;-1.30;99.90;;;;;;5030237;28;20451;-87
2022/12/14 05:32:53;;;;;;;71.75;10.65;;;-1.20;99.90;;;;;;5013973;28;20177;-88
2022/12/14 05:35:19;;;;;;;77.20;11.57;;;-1.30;99.90;;;;;;5033533;28;20170;-87
2022/12/14 05:37:45;;;;;;;77.70;11.40;;;-1.30;99.90;;;;;;5033755;28;20170;-88
2022/12/14 05:40:11;;;;;;;73.30;10.63;;;-1.30;99.90;;;;;;5035460;28;20181;-86
2022/12/14 05:42:37;;;;;;;73.43;9.98;;;-1.30;99.90;;;;;;5034191;28;20444;-86
2022/12/14 05:45:03;;;;;;;73.23;10.27;;;-1.30;99.90;;;;;;5035618;28;20662;-87
2022/12/14 05:47:29;;;;;;;71.50;10.00;;;-1.20;99.90;;;;;;5035436;28;20908;-86
2022/12/14 05:49:55;;;;;;;75.63;9.30;;;-1.20;99.90;;;;;;5018658;28;20172;-85
2022/12/14 05:52:26;;;;;;;73.57;9.60;;;-1.20;99.90;;;;;;5036224;28;20193;-86
2022/12/14 05:54:52;;;;;;;77.10;10.60;;;-1.30;99.90;;;;;;5036084;28;20935;-86
2022/12/14 05:57:18;;;;;;;71.40;10.02;;;-1.30;99.90;;;;;;5036030;28;20307;-86
2022/12/14 05:59:44;;;;;;;75.47;10.40;;;-1.30;99.90;;;;;;5035345;28;20170;-86
2022/12/14 06:02:10;;;;;;;75.93;10.00;;;-1.30;99.90;;;;;;5033156;28;20225;-88
2022/12/14 06:04:36;;;;;;;74.40;10.45;;;-1.30;99.90;;;;;;5015464;28;20448;-88
2022/12/14 06:07:02;;;;;;;75.43;11.90;;;-1.30;99.90;;;;;;5033048;28;20189;-88
2022/12/14 06:09:28;;;;;;;76.22;10.77;;;-1.30;99.90;;;;;;5032770;28;20185;-88
2022/12/14 06:11:53;;;;;;;74.37;10.27;;;-1.30;99.90;;;;;;5014794;28;20189;-86
2022/12/14 06:14:19;;;;;;;75.80;11.87;;;-1.30;99.90;;;;;;5031857;28;20177;-88
2022/12/14 06:16:48;;;;;;;78.60;12.05;;;-1.30;99.90;;;;;;5031616;28;20242;-87
2022/12/14 06:19:14;;;;;;;77.05;11.68;;;-1.30;99.90;;;;;;5031825;28;20157;-86
2022/12/14 06:21:42;;;;;;;74.55;9.95;;;-1.20;99.90;;;;;;5031577;28;20189;-86
2022/12/14 06:24:09;;;;;;;76.35;12.77;;;-1.20;99.90;;;;;;4997066;28;20208;-88
2022/12/14 06:26:36;;;;;;;75.47;8.73;;;-1.20;99.90;;;;;;5031116;28;20180;-87
2022/12/14 06:29:02;;;;;;;74.07;10.38;;;-1.10;99.90;;;;;;5031859;28;20166;-86
2022/12/14 06:31:31;;;;;;;75.05;10.30;;;-1.20;99.90;;;;;;5031337;28;20178;-86
2022/12/14 06:34:00;;;;;;;72.93;9.48;;;-1.10;99.90;;;;;;5032215;28;20166;-87
2022/12/14 06:36:35;;;;;;;77.53;11.40;;;-1.10;99.90;;;;;;5030958;28;20177;-88
2022/12/14 06:39:03;;;;;;;73.53;9.95;;;-1.10;99.90;;;;;;5029317;28;20184;-87
2022/12/14 06:41:29;;;;;;;74.72;11.02;;;-1.20;99.90;;;;;;5030218;28;20189;-87
2022/12/14 06:43:56;;;;;;;76.18;10.77;;;-1.20;99.90;;;;;;5032855;28;20263;-88
2022/12/14 06:46:25;;;;;;;75.82;11.05;;;-1.20;99.90;;;;;;5030845;28;20169;-88
2022/12/14 06:48:52;;;;;;;76.43;10.80;;;-1.20;99.90;;;;;;5029511;28;20166;-88
2022/12/14 06:51:19;;;;;;;77.47;10.77;;;-1.10;99.90;;;;;;5011903;28;20216;-87
2022/12/14 06:53:48;;;;;;;74.53;8.65;;;-1.10;99.90;;;;;;5029810;28;20162;-87
2022/12/14 06:56:19;;;;;;;74.32;10.02;;;-1.10;99.90;;;;;;5030324;28;20589;-88
2022/12/14 06:58:45;;;;;;;76.22;10.63;;;-1.10;99.90;;;;;;5031103;28;20180;-87
2022/12/14 07:01:14;;;;;;;72.93;9.60;;;-1.10;99.90;;;;;;5012810;28;20190;-86
2022/12/14 07:03:41;;;;;;;75.18;9.23;;;-1.10;99.90;;;;;;5014290;28;20178;-87
2022/12/14 07:06:07;;;;;;;76.43;9.77;;;-1.10;99.90;;;;;;5031095;28;20190;-88
2022/12/14 07:08:35;;;;;;;76.70;10.70;;;-1.10;99.90;;;;;;5013159;28;20172;-88
2022/12/14 07:11:03;;;;;;;76.78;10.98;;;-1.10;99.90;;;;;;5029779;28;20188;-87
2022/12/14 07:13:29;;;;;;;76.32;10.02;;;-1.10;99.90;;;;;;5029658;28;20166;-87
2022/12/14 07:15:56;;;;;;;78.50;10.80;;;-1.10;99.90;;;;;;5030234;28;20170;-86
2022/12/14 07:18:22;;;;;;;71.80;9.93;;;-1.10;99.90;;;;;;5012145;28;20166;-87
2022/12/14 07:20:59;;;;;;;76.28;10.85;;;-1.10;99.90;;;;;;5030828;28;20212;-86
2022/12/14 07:23:29;;;;;;;75.55;10.27;;;-1.10;99.90;;;;;;5030655;28;20146;-86
2022/12/14 07:26:07;;;;;;;72.40;9.85;;;-1.00;99.90;;;;;;5030277;28;20158;-87
2022/12/14 07:28:35;;;;;;;76.00;10.70;;;-1.00;99.90;;;;;;5028348;28;20531;-88
2022/12/14 07:31:01;;;;;;;75.70;9.57;;;-1.10;99.90;;;;;;5011985;28;20213;-87
2022/12/14 07:33:27;;;;;;;74.82;8.93;;;-1.10;99.90;;;;;;5028802;28;20297;-87
2022/12/14 07:36:11;;;;;;;79.55;9.18;;;-1.10;99.90;;;;;;5011717;28;20173;-87
2022/12/14 07:38:38;;;;;;;71.55;9.00;;;-1.10;99.90;;;;;;5012037;28;20522;-88
2022/12/14 07:41:09;;;;;;;74.50;9.38;;;-1.00;99.90;;;;;;5011707;28;20201;-87
2022/12/14 07:43:36;;;;;;;74.43;10.02;;;-1.10;99.90;;;;;;5011702;28;20194;-87
2022/12/14 07:46:04;;;;;;;79.32;10.13;;;-1.10;99.90;;;;;;5012399;28;20166;-88
2022/12/14 07:48:31;;;;;;;74.68;9.73;;;-1.10;99.90;;;;;;5027898;28;20166;-87
2022/12/14 07:51:10;;;;;;;76.38;10.10;;;-1.10;99.90;;;;;;5031757;28;20181;-87
2022/12/14 07:53:37;;;;;;;74.80;10.40;;;-1.00;99.90;;;;;;5016058;28;20184;-86
2022/12/14 07:56:09;;;;;;;73.78;9.75;;;-1.00;99.90;;;;;;5032531;28;20526;-87
2022/12/14 07:58:35;;;;;;;73.90;9.80;;;-1.10;99.90;;;;;;5015856;28;20249;-88
2022/12/14 08:01:14;;;;;;;81.07;12.40;;;-1.00;99.90;;;;;;5031831;28;20177;-86
2022/12/14 08:04:04;;;;;;;74.50;11.77;;;-1.00;99.90;;;;;;5033079;28;20196;-88
2022/12/14 08:06:31;;;;;;;76.18;10.32;;;-1.00;99.90;;;;;;5032115;28;20186;-88
2022/12/14 08:08:57;;;;;;;72.68;9.73;;;-0.90;99.90;;;;;;5032107;28;20162;-86
2022/12/14 08:11:23;;;;;;;72.03;9.07;;;-1.00;99.90;;;;;;5032306;28;20182;-86
2022/12/14 08:13:54;;;;;;;73.65;10.15;;;-0.90;99.90;;;;;;5015371;28;20186;-87
2022/12/14 08:16:19;;;;;;;75.68;11.00;;;-0.90;99.90;;;;;;5031991;28;20233;-86
2022/12/14 08:18:45;;;;;;;77.00;10.73;;;-0.90;99.90;;;;;;5032602;28;20660;-88
2022/12/14 08:21:19;;;;;;;71.17;10.10;;;-0.90;99.90;;;;;;5031908;28;20267;-87
2022/12/14 08:23:45;;;;;;;73.93;11.32;;;-0.90;99.90;;;;;;5031455;28;20189;-87
2022/12/14 08:26:11;;;;;;;71.87;10.10;;;-0.90;99.90;;;;;;5032168;28;20170;-87
2022/12/14 08:28:37;;;;;;;77.37;10.50;;;-0.90;99.90;;;;;;5031837;28;20405;-86
2022/12/14 08:31:08;;;;;;;75.17;9.33;;;-0.80;99.90;;;;;;5032002;28;20425;-87
2022/12/14 08:33:35;;;;;;;74.90;11.07;;;-0.70;99.90;;;;;;5032527;28;20157;-87
2022/12/14 08:36:12;;;;;;;77.82;12.15;;;-0.70;99.90;;;;;;5031289;28;20170;-87
2022/12/14 08:38:39;;;;;;;75.22;10.85;;;-0.80;99.90;;;;;;5032034;28;20154;-87
2022/12/14 08:41:10;;;;;;;75.05;10.57;;;-0.70;99.90;;;;;;5030957;28;20189;-87
2022/12/14 08:43:37;;;;;;;75.60;10.25;;;-0.60;99.90;;;;;;5030560;28;20189;-87
2022/12/14 08:46:03;;;;;;;76.00;10.88;;;-0.60;98.90;;;;;;5013000;28;20769;-87
2022/12/14 08:48:29;;;;;;;74.78;10.25;;;-0.60;99.90;;;;;;5013954;28;20252;-87
2022/12/14 08:51:07;;;;;;;74.88;10.52;;;-0.50;99.10;;;;;;5030669;28;20217;-87
2022/12/14 08:53:34;;;;;;;77.30;10.35;;;-0.60;97.30;;;;;;5031126;28;20589;-87
2022/12/14 08:56:09;;;;;;;79.22;10.73;;;-0.60;97.50;;;;;;5013154;28;20162;-87
2022/12/14 08:58:35;;;;;;;76.18;10.98;;;-0.70;97.80;;;;;;5012628;28;20189;-87
2022/12/14 09:01:06;;;;;;;73.40;10.00;;;-0.60;98.60;;;;;;5030217;28;20224;-87
2022/12/14 09:03:32;;;;;;;76.25;10.27;;;-0.60;99.00;;;;;;5028881;28;20146;-86
2022/12/14 09:06:05;;;;;;;80.38;11.63;;;-0.60;99.10;;;;;;5029113;28;20495;-87
2022/12/14 09:08:31;;;;;;;80.38;11.60;;;-0.50;94.90;;;;;;5028607;28;20201;-88
2022/12/14 09:10:58;;;;;;;74.75;11.38;;;-0.60;87.00;;;;;;5012117;28;20186;-87
2022/12/14 09:13:24;;;;;;;78.55;11.10;;;-0.60;82.50;;;;;;5011626;28;20180;-87
2022/12/14 09:16:01;;;;;;;76.90;11.30;;;-0.60;79.40;;;;;;5011937;28;20162;-87
2022/12/14 09:18:27;;;;;;;75.80;12.00;;;-0.60;79.80;;;;;;5010904;28;20182;-88
2022/12/14 09:20:54;;;;;;;77.32;11.70;;;-0.50;66.30;;;;;;5029929;28;20201;-87
2022/12/14 09:23:24;;;;;;;77.85;10.52;;;-0.50;55.20;;;;;;5029121;28;20161;-87
2022/12/14 09:26:09;;;;;;;75.07;11.38;;;-0.40;50.70;;;;;;5030157;28;20150;-87
2022/12/14 09:28:37;;;;;;;77.90;11.43;;;-0.40;43.30;;;;;;5029387;28;20273;-88
2022/12/14 09:31:09;;;;;;;74.45;10.40;;;-0.40;33.00;;;;;;5028975;28;20191;-87
2022/12/14 09:33:36;;;;;;;78.05;11.75;;;-0.30;23.00;;;;;;5029057;28;20225;-87
2022/12/14 09:36:07;;;;;;;74.80;12.30;;;-0.30;23.20;;;;;;5012305;28;20165;-87
2022/12/14 09:38:36;;;;;;;77.93;12.38;;;-0.40;22.60;;;;;;5029677;28;20150;-88
2022/12/14 09:41:05;;;;;;;77.30;11.40;;;-0.30;23.00;;;;;;5029474;28;20178;-87
2022/12/14 09:43:42;;;;;;;73.38;10.07;;;-0.30;23.50;;;;;;5029723;28;20157;-88
2022/12/14 09:46:46;;;;;;;79.32;11.20;;;-0.20;23.80;;;;;;5030402;28;20158;-87
2022/12/14 09:49:33;;;;;;;77.00;11.32;;;-0.20;23.10;;;;;;5023354;28;20180;-87
2022/12/14 09:52:02;;;;;;;79.50;11.32;;;-0.10;23.80;;;;;;5029949;28;20182;-87
2022/12/14 09:54:33;;;;;;;74.40;11.93;;;-0.10;24.30;;;;;;5029673;28;20172;-87
2022/12/14 09:57:26;;;;;;;78.25;12.98;;;-0.10;23.30;;;;;;5028709;28;20566;-87
2022/12/14 09:59:53;;;;;;;80.05;12.38;;;-0.10;24.60;;;;;;5028890;28;20154;-87
2022/12/14 10:02:53;;;;;;;80.90;12.98;;;-0.20;29.60;;;;;;5028832;28;20181;-87
2022/12/14 10:05:18;;;;;;;77.32;10.90;;;-0.10;29.30;;;;;;5011717;28;20192;-87
2022/12/14 10:08:00;;;;;;;81.27;12.73;;;-0.10;29.60;;;;;;5028981;28;20189;-87
2022/12/14 10:10:46;;;;;;;74.78;11.63;;;-0.20;34.70;;;;;;5028930;28;20185;-88
2022/12/14 10:13:18;;;;;;;77.03;12.13;;;-0.30;38.50;;;;;;5028965;28;20146;-87
2022/12/14 10:16:05;;;;;;;85.68;14.65;;;-0.30;41.30;;;;;;5028510;28;20361;-87
2022/12/14 10:18:39;;;;;;;79.68;10.80;;;-0.30;46.40;;;;;;5010727;28;20212;-87
2022/12/14 10:21:12;;;;;;;78.50;13.88;;;-0.20;49.30;;;;;;5009867;28;20189;-87
2022/12/14 10:23:45;;;;;;;77.25;13.30;;;-0.10;51.60;;;;;;5010314;28;20166;-86
2022/12/14 10:26:17;;;;;;;85.07;15.32;;;0.00;50.90;;;;;;5010192;28;20181;-87
2022/12/14 10:29:09;;;;;;;82.70;14.00;;;0.00;51.50;;;;;;5026432;28;20162;-87
2022/12/14 10:31:43;;;;;;;82.75;14.75;;;-0.10;55.10;;;;;;5005299;28;20205;-88
2022/12/14 10:34:21;;;;;;;80.57;14.20;;;0.00;58.20;;;;;;5009232;28;20585;-87
2022/12/14 10:37:11;;;;;;;80.03;12.77;;;0.00;58.30;;;;;;5027242;28;20234;-87
2022/12/14 10:40:05;;;;;;;76.22;12.50;;;0.00;59.70;;;;;;5009204;28;20268;-88
2022/12/14 10:42:41;;;;;;;75.50;13.15;;;0.10;62.30;;;;;;5008245;28;20154;-87
2022/12/14 10:45:45;;;;;;;74.88;11.57;;;0.10;63.00;;;;;;5009341;28;20197;-88
2022/12/14 10:48:11;;;;;;;81.53;15.25;;;0.10;66.90;;;;;;5008874;28;20177;-87
2022/12/14 10:51:00;;;;;;;78.40;13.10;;;0.00;69.40;;;;;;5008155;28;20185;-88
2022/12/14 10:53:42;;;;;;;83.65;15.27;;;0.10;73.60;;;;;;5008632;28;20249;-87
2022/12/14 10:56:17;;;;;;;77.88;14.02;;;0.10;71.30;;;;;;5026057;28;20177;-88
2022/12/14 10:58:44;;;;;;;77.43;13.98;;;0.00;78.00;;;;;;5027461;28;20157;-87
2022/12/14 11:01:14;;;;;;;80.93;14.55;;;0.10;79.50;;;;;;5009651;28;20196;-87
2022/12/14 11:03:42;;;;;;;78.82;14.50;;;0.10;82.90;;;;;;5008628;28;20202;-87
2022/12/14 11:06:17;;;;;;;77.60;13.43;;;-0.10;88.60;;;;;;5027063;28;20184;-87
2022/12/14 11:08:48;;;;;;;78.13;13.32;;;-0.10;90.50;;;;;;5027520;28;20181;-87
2022/12/14 11:11:31;;;;;;;83.15;13.23;;;0.00;90.90;;;;;;5026848;28;20212;-87
2022/12/14 11:14:08;;;;;;;79.13;14.00;;;-0.10;91.70;;;;;;5086525;23;20277;-87
2022/12/14 11:16:36;;;;;;;79.60;13.43;;;-0.10;93.70;;;;;;5025050;28;20166;-87
2022/12/14 11:19:05;;;;;;;76.20;14.10;;;-0.10;96.10;;;;;;5023180;28;20173;-87
2022/12/14 11:21:35;;;;;;;83.88;14.32;;;-0.20;97.00;;;;;;5025359;28;20550;-87
2022/12/14 11:24:02;;;;;;;82.57;14.45;;;-0.20;98.30;;;;;;5023868;28;20631;-87
2022/12/14 11:26:41;;;;;;;78.18;13.43;;;-0.30;99.90;;;;;;5029607;28;20162;-88
2022/12/14 11:29:20;;;;;;;81.72;15.82;;;-0.20;99.90;;;;;;5029255;28;20146;-87
2022/12/14 11:31:48;;;;;;;79.03;14.40;;;-0.10;99.90;;;;;;5028083;28;20192;-87
2022/12/14 11:34:37;;;;;;;81.07;14.10;;;-0.10;99.90;;;;;;5027894;28;20170;-87
2022/12/14 11:37:25;;;;;;;77.90;13.48;;;-0.10;99.90;;;;;;5029238;28;20150;-88
2022/12/14 11:40:02;;;;;;;80.53;14.93;;;-0.10;99.20;;;;;;5026663;28;20522;-86
2022/12/14 11:42:29;;;;;;;81.20;14.43;;;0.10;99.90;;;;;;5027005;28;20201;-87
2022/12/14 11:45:24;;;;;;;81.22;14.77;;;0.10;99.30;;;;;;5025894;28;20200;-87
2022/12/14 11:48:14;;;;;;;80.68;15.35;;;0.10;98.50;;;;;;5017984;28;20170;-87
2022/12/14 11:50:45;;;;;;;85.63;15.25;;;0.10;98.50;;;;;;5027089;28;20213;-87
2022/12/14 11:53:13;;;;;;;78.68;14.05;;;0.10;99.90;;;;;;5027258;28;20165;-87
2022/12/14 11:55:57;;;;;;;81.43;15.63;;;0.10;99.90;;;;;;5027713;28;20162;-87
2022/12/14 11:58:33;;;;;;;79.35;14.20;;;0.10;99.90;;;;;;5026502;28;20162;-88
2022/12/14 12:01:14;;;;;;;80.53;14.23;;;0.10;99.90;;;;;;5027392;28;20193;-87
2022/12/14 12:03:49;;;;;;;79.53;13.95;;;0.20;99.90;;;;;;5025946;28;20161;-87
2022/12/14 12:06:26;;;;;;;83.22;14.70;;;0.20;99.90;;;;;;5024342;28;20200;-87
2022/12/14 12:09:00;;;;;;;82.75;15.60;;;0.10;99.90;;;;;;5022923;28;20205;-88
2022/12/14 12:11:30;;;;;;;78.80;13.60;;;0.10;99.90;;;;;;5022986;28;20181;-88
2022/12/14 12:14:28;;;;;;;85.07;15.48;;;0.10;99.90;;;;;;5022164;28;20743;-87
2022/12/14 12:16:55;;;;;;;83.75;15.07;;;0.00;99.90;;;;;;5014462;28;20182;-88
2022/12/14 12:19:33;;;;;;;82.40;17.08;;;0.10;99.90;;;;;;5022120;28;20301;-88
2022/12/14 12:22:00;;;;;;;85.57;22.73;;;0.00;99.90;;;;;;5022328;28;20552;-87
2022/12/14 12:24:34;;;;;;;88.95;20.85;;;0.00;99.90;;;;;;5022061;28;20217;-87
2022/12/14 12:27:13;;;;;;;81.53;19.83;;;0.00;99.90;;;;;;5023365;28;20155;-87
2022/12/14 12:29:48;;;;;;;81.53;21.38;;;-0.10;99.90;;;;;;5007659;28;20150;-87
2022/12/14 12:32:32;;;;;;;82.47;20.58;;;-0.10;99.90;;;;;;5022958;28;20146;-87
2022/12/14 12:35:16;;;;;;;86.13;20.55;;;-0.10;99.90;;;;;;5024007;28;20169;-88
2022/12/14 12:38:10;;;;;;;85.13;22.60;;;-0.10;99.90;;;;;;5023736;28;20154;-87
2022/12/14 12:41:01;;;;;;;82.38;19.75;;;-0.10;99.90;;;;;;5024258;28;20289;-87
2022/12/14 12:43:45;;;;;;;78.93;19.17;;;0.00;99.90;;;;;;5003875;28;20178;-87
2022/12/14 12:46:15;;;;;;;86.45;20.88;;;0.10;99.90;;;;;;5025719;28;20154;-87
2022/12/14 12:48:50;;;;;;;85.35;23.00;;;0.10;99.90;;;;;;5025937;28;20158;-88
2022/12/14 12:51:23;;;;;;;86.13;19.13;;;0.10;99.90;;;;;;5026688;28;20215;-87
2022/12/14 12:53:58;;;;;;;81.43;20.30;;;0.20;99.90;;;;;;5026732;28;20154;-88
2022/12/14 12:56:35;;;;;;;84.60;19.90;;;0.20;99.90;;;;;;5025256;28;20161;-87
2022/12/14 12:59:04;;;;;;;80.55;18.67;;;0.20;99.90;;;;;;5026369;28;20610;-88
2022/12/14 13:01:37;;;;;;;87.63;19.35;;;0.30;99.90;;;;;;5026601;28;20324;-87
2022/12/14 13:04:09;;;;;;;82.15;20.48;;;0.30;99.90;;;;;;5026004;28;20177;-87
2022/12/14 13:06:58;;;;;;;81.90;19.38;;;0.30;99.90;;;;;;5027056;28;20517;-87
2022/12/14 13:09:57;;;;;;;81.93;17.83;;;0.30;99.90;;;;;;5023708;28;20184;-88
2022/12/14 13:12:43;;;;;;;80.63;15.48;;;0.50;99.90;;;;;;5026759;28;20250;-88
2022/12/14 13:15:26;;;;;;;85.43;16.75;;;0.70;99.90;;;;;;5026420;28;20232;-88
2022/12/14 13:18:21;;;;;;;78.72;13.50;;;0.80;99.90;;;;;;5025300;28;20236;-87